sensor_id;sensor_type;location;lat;lon;timestamp;P1;durP1;ratioP1;P2;durP2;ratioP2
47113;SDS011;32867;51.556;6.832;2024-03-25T00:02:35;28.38;;;12.85;;
47113;SDS011;32867;51.556;6.832;2024-03-25T00:07:36;41.15;;;19.75;;
47113;SDS011;32867;51.556;6.832;2024-03-25T00:12:37;45.25;;;21.05;;
47113;SDS011;32867;51.556;6.832;2024-03-25T00:17:38;50.20;;;22.92;;
47113;SDS011;32867;51.556;6.832;2024-03-25T00:22:39;43.35;;;21.67;;
47113;SDS011;32867;51.556;6.832;2024-03-25T00:27:39;38.92;;;19.52;;
47113;SDS011;32867;51.556;6.832;2024-03-25T00:32:40;53.60;;;24.23;;
47113;SDS011;32867;51.556;6.832;2024-03-25T00:37:41;53.90;;;25.45;;
47113;SDS011;32867;51.556;6.832;2024-03-25T00:42:42;60.10;;;29.38;;
47113;SDS011;32867;51.556;6.832;2024-03-25T00:47:43;55.60;;;28.95;;
47113;SDS011;32867;51.556;6.832;2024-03-25T00:52:44;54.92;;;31.33;;
47113;SDS011;32867;51.556;6.832;2024-03-25T00:57:44;47.33;;;27.95;;
47113;SDS011;32867;51.556;6.832;2024-03-25T01:02:45;58.50;;;30.95;;
47113;SDS011;32867;51.556;6.832;2024-03-25T01:07:45;48.00;;;26.00;;
47113;SDS011;32867;51.556;6.832;2024-03-25T01:12:46;53.17;;;25.42;;
47113;SDS011;32867;51.556;6.832;2024-03-25T01:17:47;52.13;;;22.65;;
47113;SDS011;32867;51.556;6.832;2024-03-25T01:22:47;53.95;;;21.27;;
47113;SDS011;32867;51.556;6.832;2024-03-25T01:27:51;36.38;;;16.10;;
47113;SDS011;32867;51.556;6.832;2024-03-25T01:32:52;27.88;;;13.07;;
47113;SDS011;32867;51.556;6.832;2024-03-25T01:37:52;31.90;;;11.90;;
47113;SDS011;32867;51.556;6.832;2024-03-25T01:43:00;33.53;;;11.93;;
47113;SDS011;32867;51.556;6.832;2024-03-25T01:48:02;30.90;;;9.98;;
47113;SDS011;32867;51.556;6.832;2024-03-25T01:53:06;25.42;;;8.45;;
47113;SDS011;32867;51.556;6.832;2024-03-25T01:58:07;23.27;;;6.75;;
47113;SDS011;32867;51.556;6.832;2024-03-25T02:03:08;24.70;;;6.65;;
47113;SDS011;32867;51.556;6.832;2024-03-25T02:08:09;16.63;;;5.43;;
47113;SDS011;32867;51.556;6.832;2024-03-25T02:13:10;25.10;;;5.60;;
47113;SDS011;32867;51.556;6.832;2024-03-25T02:18:10;18.80;;;5.07;;
47113;SDS011;32867;51.556;6.832;2024-03-25T02:23:11;17.27;;;5.38;;
47113;SDS011;32867;51.556;6.832;2024-03-25T02:28:12;14.95;;;4.85;;
47113;SDS011;32867;51.556;6.832;2024-03-25T02:33:13;16.63;;;4.50;;
47113;SDS011;32867;51.556;6.832;2024-03-25T02:38:14;15.90;;;4.03;;
47113;SDS011;32867;51.556;6.832;2024-03-25T02:43:18;12.45;;;4.47;;
47113;SDS011;32867;51.556;6.832;2024-03-25T02:48:21;23.63;;;5.00;;
47113;SDS011;32867;51.556;6.832;2024-03-25T02:53:21;17.70;;;4.47;;
47113;SDS011;32867;51.556;6.832;2024-03-25T02:58:22;18.33;;;4.60;;
47113;SDS011;32867;51.556;6.832;2024-03-25T03:03:23;15.07;;;4.72;;
47113;SDS011;32867;51.556;6.832;2024-03-25T03:08:23;18.50;;;4.18;;
47113;SDS011;32867;51.556;6.832;2024-03-25T03:13:24;17.35;;;4.20;;
47113;SDS011;32867;51.556;6.832;2024-03-25T03:18:25;27.63;;;4.68;;
47113;SDS011;32867;51.556;6.832;2024-03-25T03:23:25;17.83;;;4.57;;
47113;SDS011;32867;51.556;6.832;2024-03-25T03:28:26;22.98;;;5.45;;
47113;SDS011;32867;51.556;6.832;2024-03-25T03:33:28;16.60;;;4.75;;
47113;SDS011;32867;51.556;6.832;2024-03-25T03:38:29;16.08;;;4.50;;
47113;SDS011;32867;51.556;6.832;2024-03-25T03:43:30;16.63;;;4.22;;
47113;SDS011;32867;51.556;6.832;2024-03-25T03:48:30;19.60;;;4.25;;
47113;SDS011;32867;51.556;6.832;2024-03-25T03:53:31;14.75;;;3.85;;
47113;SDS011;32867;51.556;6.832;2024-03-25T03:58:33;14.75;;;3.72;;
47113;SDS011;32867;51.556;6.832;2024-03-25T04:03:34;9.45;;;3.33;;
47113;SDS011;32867;51.556;6.832;2024-03-25T04:08:34;13.52;;;3.97;;
47113;SDS011;32867;51.556;6.832;2024-03-25T04:13:35;10.88;;;3.50;;
47113;SDS011;32867;51.556;6.832;2024-03-25T04:18:36;17.73;;;3.97;;
47113;SDS011;32867;51.556;6.832;2024-03-25T04:23:36;12.32;;;3.83;;
47113;SDS011;32867;51.556;6.832;2024-03-25T04:28:38;19.00;;;4.75;;
47113;SDS011;32867;51.556;6.832;2024-03-25T04:33:38;16.67;;;4.47;;
47113;SDS011;32867;51.556;6.832;2024-03-25T04:38:39;19.08;;;4.57;;
47113;SDS011;32867;51.556;6.832;2024-03-25T04:43:40;12.73;;;3.20;;
47113;SDS011;32867;51.556;6.832;2024-03-25T04:48:40;16.17;;;4.10;;
47113;SDS011;32867;51.556;6.832;2024-03-25T04:53:41;10.88;;;3.58;;
47113;SDS011;32867;51.556;6.832;2024-03-25T04:58:42;10.05;;;3.05;;
47113;SDS011;32867;51.556;6.832;2024-03-25T05:03:42;11.10;;;3.58;;
47113;SDS011;32867;51.556;6.832;2024-03-25T05:08:43;13.43;;;3.90;;
47113;SDS011;32867;51.556;6.832;2024-03-25T05:13:48;12.88;;;4.10;;
47113;SDS011;32867;51.556;6.832;2024-03-25T05:18:48;14.10;;;4.53;;
47113;SDS011;32867;51.556;6.832;2024-03-25T05:23:49;12.02;;;3.85;;
47113;SDS011;32867;51.556;6.832;2024-03-25T05:28:53;9.00;;;3.35;;
47113;SDS011;32867;51.556;6.832;2024-03-25T05:33:57;15.45;;;4.20;;
47113;SDS011;32867;51.556;6.832;2024-03-25T05:39:00;14.15;;;4.10;;
47113;SDS011;32867;51.556;6.832;2024-03-25T05:44:00;11.70;;;3.60;;
47113;SDS011;32867;51.556;6.832;2024-03-25T05:49:02;13.35;;;4.05;;
47113;SDS011;32867;51.556;6.832;2024-03-25T05:54:03;8.40;;;3.90;;
47113;SDS011;32867;51.556;6.832;2024-03-25T05:59:04;10.40;;;3.55;;
47113;SDS011;32867;51.556;6.832;2024-03-25T06:04:04;7.85;;;3.40;;
47113;SDS011;32867;51.556;6.832;2024-03-25T06:09:05;14.32;;;4.43;;
47113;SDS011;32867;51.556;6.832;2024-03-25T06:14:06;13.50;;;3.95;;
47113;SDS011;32867;51.556;6.832;2024-03-25T06:19:06;10.38;;;3.80;;
47113;SDS011;32867;51.556;6.832;2024-03-25T06:24:07;12.82;;;4.45;;
47113;SDS011;32867;51.556;6.832;2024-03-25T06:29:08;12.18;;;5.05;;
47113;SDS011;32867;51.556;6.832;2024-03-25T06:34:08;14.43;;;4.80;;
47113;SDS011;32867;51.556;6.832;2024-03-25T06:39:17;16.15;;;5.13;;
47113;SDS011;32867;51.556;6.832;2024-03-25T06:44:18;15.80;;;5.82;;
47113;SDS011;32867;51.556;6.832;2024-03-25T06:49:19;14.90;;;4.93;;
47113;SDS011;32867;51.556;6.832;2024-03-25T06:54:20;13.63;;;5.10;;
47113;SDS011;32867;51.556;6.832;2024-03-25T06:59:20;15.32;;;5.53;;
47113;SDS011;32867;51.556;6.832;2024-03-25T07:04:22;17.42;;;6.30;;
47113;SDS011;32867;51.556;6.832;2024-03-25T07:14:32;18.25;;;6.30;;
47113;SDS011;32867;51.556;6.832;2024-03-25T07:19:33;20.35;;;6.88;;
47113;SDS011;32867;51.556;6.832;2024-03-25T07:24:33;16.90;;;5.88;;
47113;SDS011;32867;51.556;6.832;2024-03-25T07:29:34;23.17;;;6.80;;
47113;SDS011;32867;51.556;6.832;2024-03-25T07:34:35;21.85;;;7.80;;
47113;SDS011;32867;51.556;6.832;2024-03-25T07:39:35;15.20;;;5.50;;
47113;SDS011;32867;51.556;6.832;2024-03-25T07:44:36;27.92;;;6.22;;
47113;SDS011;32867;51.556;6.832;2024-03-25T07:49:36;16.40;;;5.22;;
47113;SDS011;32867;51.556;6.832;2024-03-25T07:54:39;21.55;;;5.82;;
47113;SDS011;32867;51.556;6.832;2024-03-25T07:59:40;17.73;;;4.55;;
47113;SDS011;32867;51.556;6.832;2024-03-25T08:04:41;17.90;;;5.20;;
47113;SDS011;32867;51.556;6.832;2024-03-25T08:09:41;16.98;;;4.28;;
47113;SDS011;32867;51.556;6.832;2024-03-25T08:14:42;15.30;;;4.22;;
47113;SDS011;32867;51.556;6.832;2024-03-25T08:19:43;23.50;;;4.53;;
47113;SDS011;32867;51.556;6.832;2024-03-25T08:24:44;16.08;;;4.80;;
47113;SDS011;32867;51.556;6.832;2024-03-25T08:29:44;16.92;;;4.15;;
47113;SDS011;32867;51.556;6.832;2024-03-25T08:34:46;13.43;;;2.90;;
47113;SDS011;32867;51.556;6.832;2024-03-25T08:39:47;11.13;;;2.88;;
47113;SDS011;32867;51.556;6.832;2024-03-25T08:44:47;14.18;;;2.85;;
47113;SDS011;32867;51.556;6.832;2024-03-25T08:49:48;14.23;;;2.80;;
47113;SDS011;32867;51.556;6.832;2024-03-25T08:54:49;9.25;;;2.53;;
47113;SDS011;32867;51.556;6.832;2024-03-25T08:59:49;12.88;;;3.13;;
47113;SDS011;32867;51.556;6.832;2024-03-25T09:04:50;15.13;;;6.05;;
47113;SDS011;32867;51.556;6.832;2024-03-25T09:09:50;13.45;;;3.15;;
47113;SDS011;32867;51.556;6.832;2024-03-25T09:15:12;11.30;;;2.38;;
47113;SDS011;32867;51.556;6.832;2024-03-25T09:20:12;11.52;;;2.58;;
47113;SDS011;32867;51.556;6.832;2024-03-25T09:25:20;9.93;;;2.65;;
47113;SDS011;32867;51.556;6.832;2024-03-25T09:30:21;15.30;;;3.35;;
47113;SDS011;32867;51.556;6.832;2024-03-25T09:35:22;10.95;;;2.83;;
47113;SDS011;32867;51.556;6.832;2024-03-25T09:40:23;18.55;;;3.70;;
47113;SDS011;32867;51.556;6.832;2024-03-25T09:45:24;14.20;;;3.10;;
47113;SDS011;32867;51.556;6.832;2024-03-25T09:50:28;14.38;;;2.90;;
47113;SDS011;32867;51.556;6.832;2024-03-25T09:55:29;16.48;;;3.42;;
47113;SDS011;32867;51.556;6.832;2024-03-25T10:00:30;11.52;;;3.47;;
47113;SDS011;32867;51.556;6.832;2024-03-25T10:05:30;7.30;;;2.20;;
47113;SDS011;32867;51.556;6.832;2024-03-25T10:10:33;14.32;;;2.70;;
47113;SDS011;32867;51.556;6.832;2024-03-25T10:15:34;9.07;;;2.60;;
47113;SDS011;32867;51.556;6.832;2024-03-25T10:20:35;9.77;;;3.35;;
47113;SDS011;32867;51.556;6.832;2024-03-25T10:25:36;7.95;;;3.25;;
47113;SDS011;32867;51.556;6.832;2024-03-25T10:30:36;8.88;;;4.28;;
47113;SDS011;32867;51.556;6.832;2024-03-25T10:35:38;8.23;;;3.65;;
47113;SDS011;32867;51.556;6.832;2024-03-25T10:40:41;14.48;;;4.43;;
47113;SDS011;32867;51.556;6.832;2024-03-25T10:45:45;10.98;;;3.65;;
47113;SDS011;32867;51.556;6.832;2024-03-25T10:50:47;11.32;;;3.50;;
47113;SDS011;32867;51.556;6.832;2024-03-25T10:55:50;11.85;;;4.32;;
47113;SDS011;32867;51.556;6.832;2024-03-25T11:00:53;9.27;;;3.13;;
47113;SDS011;32867;51.556;6.832;2024-03-25T11:05:56;9.23;;;3.10;;
47113;SDS011;32867;51.556;6.832;2024-03-25T11:10:57;12.30;;;2.67;;
47113;SDS011;32867;51.556;6.832;2024-03-25T11:15:58;10.82;;;3.65;;
47113;SDS011;32867;51.556;6.832;2024-03-25T11:21:00;8.30;;;3.28;;
47113;SDS011;32867;51.556;6.832;2024-03-25T11:26:00;6.40;;;3.00;;
47113;SDS011;32867;51.556;6.832;2024-03-25T11:31:01;10.93;;;3.47;;
47113;SDS011;32867;51.556;6.832;2024-03-25T11:36:05;7.50;;;2.85;;
47113;SDS011;32867;51.556;6.832;2024-03-25T11:41:06;8.93;;;3.10;;
47113;SDS011;32867;51.556;6.832;2024-03-25T11:46:06;9.90;;;2.88;;
47113;SDS011;32867;51.556;6.832;2024-03-25T11:51:10;7.93;;;2.90;;
47113;SDS011;32867;51.556;6.832;2024-03-25T11:56:12;11.13;;;3.28;;
47113;SDS011;32867;51.556;6.832;2024-03-25T12:01:14;8.73;;;3.08;;
47113;SDS011;32867;51.556;6.832;2024-03-25T12:06:17;8.75;;;2.92;;
47113;SDS011;32867;51.556;6.832;2024-03-25T12:11:18;8.48;;;2.35;;
47113;SDS011;32867;51.556;6.832;2024-03-25T12:16:19;11.13;;;3.08;;
47113;SDS011;32867;51.556;6.832;2024-03-25T12:21:20;11.27;;;5.32;;
47113;SDS011;32867;51.556;6.832;2024-03-25T12:26:20;10.23;;;4.05;;
47113;SDS011;32867;51.556;6.832;2024-03-25T12:31:23;8.02;;;3.03;;
47113;SDS011;32867;51.556;6.832;2024-03-25T12:36:24;9.75;;;2.83;;
47113;SDS011;32867;51.556;6.832;2024-03-25T12:41:26;9.40;;;2.92;;
47113;SDS011;32867;51.556;6.832;2024-03-25T12:46:27;9.98;;;3.15;;
47113;SDS011;32867;51.556;6.832;2024-03-25T12:51:29;8.10;;;2.88;;
47113;SDS011;32867;51.556;6.832;2024-03-25T12:56:30;6.55;;;2.40;;
47113;SDS011;32867;51.556;6.832;2024-03-25T13:01:30;7.35;;;2.72;;
47113;SDS011;32867;51.556;6.832;2024-03-25T13:06:31;7.38;;;2.50;;
47113;SDS011;32867;51.556;6.832;2024-03-25T13:11:32;9.93;;;3.03;;
47113;SDS011;32867;51.556;6.832;2024-03-25T13:16:33;7.45;;;2.85;;
47113;SDS011;32867;51.556;6.832;2024-03-25T13:21:33;8.07;;;2.50;;
47113;SDS011;32867;51.556;6.832;2024-03-25T13:26:34;10.00;;;2.85;;
47113;SDS011;32867;51.556;6.832;2024-03-25T13:31:35;10.30;;;2.63;;
47113;SDS011;32867;51.556;6.832;2024-03-25T13:36:36;6.53;;;2.60;;
47113;SDS011;32867;51.556;6.832;2024-03-25T13:41:37;7.68;;;3.28;;
47113;SDS011;32867;51.556;6.832;2024-03-25T13:46:38;5.82;;;1.80;;
47113;SDS011;32867;51.556;6.832;2024-03-25T13:51:39;5.13;;;2.03;;
47113;SDS011;32867;51.556;6.832;2024-03-25T13:56:40;7.60;;;1.80;;
47113;SDS011;32867;51.556;6.832;2024-03-25T14:01:42;5.97;;;1.92;;
47113;SDS011;32867;51.556;6.832;2024-03-25T14:06:42;8.48;;;2.22;;
47113;SDS011;32867;51.556;6.832;2024-03-25T14:11:45;7.07;;;1.92;;
47113;SDS011;32867;51.556;6.832;2024-03-25T14:16:46;5.38;;;1.73;;
47113;SDS011;32867;51.556;6.832;2024-03-25T14:21:48;5.43;;;1.80;;
47113;SDS011;32867;51.556;6.832;2024-03-25T14:26:48;4.90;;;1.80;;
47113;SDS011;32867;51.556;6.832;2024-03-25T14:31:49;4.75;;;1.80;;
47113;SDS011;32867;51.556;6.832;2024-03-25T14:36:50;5.63;;;1.63;;
47113;SDS011;32867;51.556;6.832;2024-03-25T14:41:50;5.28;;;1.70;;
47113;SDS011;32867;51.556;6.832;2024-03-25T14:46:51;8.05;;;2.00;;
47113;SDS011;32867;51.556;6.832;2024-03-25T14:51:52;4.25;;;1.50;;
47113;SDS011;32867;51.556;6.832;2024-03-25T14:56:52;6.00;;;1.73;;
47113;SDS011;32867;51.556;6.832;2024-03-25T15:01:53;5.72;;;1.70;;
47113;SDS011;32867;51.556;6.832;2024-03-25T15:06:54;4.10;;;1.75;;
47113;SDS011;32867;51.556;6.832;2024-03-25T15:11:54;7.45;;;1.77;;
47113;SDS011;32867;51.556;6.832;2024-03-25T15:16:55;4.97;;;2.08;;
47113;SDS011;32867;51.556;6.832;2024-03-25T15:21:55;4.90;;;1.45;;
47113;SDS011;32867;51.556;6.832;2024-03-25T15:26:57;5.97;;;1.77;;
47113;SDS011;32867;51.556;6.832;2024-03-25T15:31:58;5.75;;;1.70;;
47113;SDS011;32867;51.556;6.832;2024-03-25T15:36:58;4.82;;;1.60;;
47113;SDS011;32867;51.556;6.832;2024-03-25T15:41:59;4.90;;;1.45;;
47113;SDS011;32867;51.556;6.832;2024-03-25T15:46:59;3.53;;;1.30;;
47113;SDS011;32867;51.556;6.832;2024-03-25T15:52:00;5.55;;;1.60;;
47113;SDS011;32867;51.556;6.832;2024-03-25T15:57:01;6.75;;;1.90;;
47113;SDS011;32867;51.556;6.832;2024-03-25T16:02:01;5.40;;;1.40;;
47113;SDS011;32867;51.556;6.832;2024-03-25T16:07:02;4.47;;;1.55;;
47113;SDS011;32867;51.556;6.832;2024-03-25T16:12:03;7.90;;;1.77;;
47113;SDS011;32867;51.556;6.832;2024-03-25T16:17:04;4.75;;;1.52;;
47113;SDS011;32867;51.556;6.832;2024-03-25T16:22:05;4.45;;;1.85;;
47113;SDS011;32867;51.556;6.832;2024-03-25T16:27:06;7.20;;;1.83;;
47113;SDS011;32867;51.556;6.832;2024-03-25T16:32:08;5.82;;;1.90;;
47113;SDS011;32867;51.556;6.832;2024-03-25T16:37:08;7.82;;;1.83;;
47113;SDS011;32867;51.556;6.832;2024-03-25T16:42:09;5.55;;;1.80;;
47113;SDS011;32867;51.556;6.832;2024-03-25T16:47:10;3.80;;;1.50;;
47113;SDS011;32867;51.556;6.832;2024-03-25T16:52:10;4.47;;;1.88;;
47113;SDS011;32867;51.556;6.832;2024-03-25T16:57:11;3.53;;;1.73;;
47113;SDS011;32867;51.556;6.832;2024-03-25T17:02:12;11.57;;;1.80;;
47113;SDS011;32867;51.556;6.832;2024-03-25T17:07:13;5.63;;;1.63;;
47113;SDS011;32867;51.556;6.832;2024-03-25T17:12:13;4.05;;;1.55;;
47113;SDS011;32867;51.556;6.832;2024-03-25T17:17:14;4.35;;;1.58;;
47113;SDS011;32867;51.556;6.832;2024-03-25T17:22:15;6.72;;;1.90;;
47113;SDS011;32867;51.556;6.832;2024-03-25T17:27:16;4.88;;;1.65;;
47113;SDS011;32867;51.556;6.832;2024-03-25T17:32:17;6.85;;;1.90;;
47113;SDS011;32867;51.556;6.832;2024-03-25T17:37:17;5.40;;;1.67;;
47113;SDS011;32867;51.556;6.832;2024-03-25T17:42:18;6.35;;;2.30;;
47113;SDS011;32867;51.556;6.832;2024-03-25T17:47:18;4.47;;;1.88;;
47113;SDS011;32867;51.556;6.832;2024-03-25T17:52:19;5.43;;;2.08;;
47113;SDS011;32867;51.556;6.832;2024-03-25T17:57:20;6.05;;;1.60;;
47113;SDS011;32867;51.556;6.832;2024-03-25T18:02:21;4.15;;;1.52;;
47113;SDS011;32867;51.556;6.832;2024-03-25T18:07:21;4.32;;;1.35;;
47113;SDS011;32867;51.556;6.832;2024-03-25T18:12:22;6.32;;;1.42;;
47113;SDS011;32867;51.556;6.832;2024-03-25T18:17:23;2.85;;;1.30;;
47113;SDS011;32867;51.556;6.832;2024-03-25T18:22:23;5.35;;;1.70;;
47113;SDS011;32867;51.556;6.832;2024-03-25T18:27:24;5.07;;;1.70;;
47113;SDS011;32867;51.556;6.832;2024-03-25T18:32:25;5.70;;;2.05;;
47113;SDS011;32867;51.556;6.832;2024-03-25T18:37:25;6.55;;;1.70;;
47113;SDS011;32867;51.556;6.832;2024-03-25T18:42:26;5.03;;;1.83;;
47113;SDS011;32867;51.556;6.832;2024-03-25T18:47:27;5.05;;;1.98;;
47113;SDS011;32867;51.556;6.832;2024-03-25T18:52:27;4.63;;;1.77;;
47113;SDS011;32867;51.556;6.832;2024-03-25T18:57:28;3.10;;;1.60;;
47113;SDS011;32867;51.556;6.832;2024-03-25T19:02:29;6.97;;;2.20;;
47113;SDS011;32867;51.556;6.832;2024-03-25T19:07:30;5.38;;;2.00;;
47113;SDS011;32867;51.556;6.832;2024-03-25T19:12:31;7.25;;;3.60;;
47113;SDS011;32867;51.556;6.832;2024-03-25T19:17:31;7.80;;;2.92;;
47113;SDS011;32867;51.556;6.832;2024-03-25T19:22:32;7.60;;;2.30;;
47113;SDS011;32867;51.556;6.832;2024-03-25T19:27:32;15.82;;;7.53;;
47113;SDS011;32867;51.556;6.832;2024-03-25T19:32:33;32.22;;;15.50;;
47113;SDS011;32867;51.556;6.832;2024-03-25T19:37:34;16.73;;;8.43;;
47113;SDS011;32867;51.556;6.832;2024-03-25T19:42:35;9.13;;;3.03;;
47113;SDS011;32867;51.556;6.832;2024-03-25T19:47:35;8.82;;;2.92;;
47113;SDS011;32867;51.556;6.832;2024-03-25T19:52:37;8.45;;;2.50;;
47113;SDS011;32867;51.556;6.832;2024-03-25T19:57:38;6.65;;;2.45;;
47113;SDS011;32867;51.556;6.832;2024-03-25T20:02:38;9.98;;;2.30;;
47113;SDS011;32867;51.556;6.832;2024-03-25T20:07:39;6.75;;;2.45;;
47113;SDS011;32867;51.556;6.832;2024-03-25T20:12:40;7.32;;;2.30;;
47113;SDS011;32867;51.556;6.832;2024-03-25T20:17:40;7.45;;;2.60;;
47113;SDS011;32867;51.556;6.832;2024-03-25T20:22:41;7.03;;;2.30;;
47113;SDS011;32867;51.556;6.832;2024-03-25T20:27:41;5.32;;;1.85;;
47113;SDS011;32867;51.556;6.832;2024-03-25T20:32:42;6.10;;;1.92;;
47113;SDS011;32867;51.556;6.832;2024-03-25T20:37:43;4.60;;;1.98;;
47113;SDS011;32867;51.556;6.832;2024-03-25T20:42:43;8.88;;;2.60;;
47113;SDS011;32867;51.556;6.832;2024-03-25T20:47:44;4.78;;;1.75;;
47113;SDS011;32867;51.556;6.832;2024-03-25T20:52:45;7.07;;;2.42;;
47113;SDS011;32867;51.556;6.832;2024-03-25T20:57:45;6.43;;;1.90;;
47113;SDS011;32867;51.556;6.832;2024-03-25T21:02:46;6.15;;;1.90;;
47113;SDS011;32867;51.556;6.832;2024-03-25T21:07:46;7.32;;;2.20;;
47113;SDS011;32867;51.556;6.832;2024-03-25T21:12:47;5.50;;;2.42;;
47113;SDS011;32867;51.556;6.832;2024-03-25T21:17:47;5.20;;;2.03;;
47113;SDS011;32867;51.556;6.832;2024-03-25T21:22:48;10.43;;;2.40;;
47113;SDS011;32867;51.556;6.832;2024-03-25T21:27:50;7.85;;;2.28;;
47113;SDS011;32867;51.556;6.832;2024-03-25T21:32:51;8.60;;;2.50;;
47113;SDS011;32867;51.556;6.832;2024-03-25T21:37:52;8.68;;;3.17;;
47113;SDS011;32867;51.556;6.832;2024-03-25T21:42:52;8.43;;;2.40;;
47113;SDS011;32867;51.556;6.832;2024-03-25T21:47:53;8.95;;;2.58;;
47113;SDS011;32867;51.556;6.832;2024-03-25T21:52:53;7.32;;;2.78;;
47113;SDS011;32867;51.556;6.832;2024-03-25T21:57:55;9.75;;;3.22;;
47113;SDS011;32867;51.556;6.832;2024-03-25T22:02:56;8.23;;;2.63;;
47113;SDS011;32867;51.556;6.832;2024-03-25T22:07:56;7.78;;;2.50;;
47113;SDS011;32867;51.556;6.832;2024-03-25T22:12:57;8.32;;;2.55;;
47113;SDS011;32867;51.556;6.832;2024-03-25T22:18:01;8.43;;;2.88;;
47113;SDS011;32867;51.556;6.832;2024-03-25T22:23:03;9.68;;;3.10;;
47113;SDS011;32867;51.556;6.832;2024-03-25T22:28:03;8.68;;;2.70;;
47113;SDS011;32867;51.556;6.832;2024-03-25T22:33:05;7.95;;;2.85;;
47113;SDS011;32867;51.556;6.832;2024-03-25T22:38:05;7.80;;;2.42;;
47113;SDS011;32867;51.556;6.832;2024-03-25T22:43:06;8.48;;;2.70;;
47113;SDS011;32867;51.556;6.832;2024-03-25T22:48:07;6.15;;;2.50;;
47113;SDS011;32867;51.556;6.832;2024-03-25T22:53:07;11.10;;;3.55;;
47113;SDS011;32867;51.556;6.832;2024-03-25T22:58:08;9.35;;;2.90;;
47113;SDS011;32867;51.556;6.832;2024-03-25T23:03:08;6.00;;;2.70;;
47113;SDS011;32867;51.556;6.832;2024-03-25T23:08:09;8.10;;;3.03;;
47113;SDS011;32867;51.556;6.832;2024-03-25T23:13:10;7.65;;;2.80;;
47113;SDS011;32867;51.556;6.832;2024-03-25T23:18:10;7.68;;;2.70;;
47113;SDS011;32867;51.556;6.832;2024-03-25T23:23:11;8.15;;;2.95;;
47113;SDS011;32867;51.556;6.832;2024-03-25T23:28:13;8.18;;;2.90;;
47113;SDS011;32867;51.556;6.832;2024-03-25T23:33:14;9.95;;;3.30;;
47113;SDS011;32867;51.556;6.832;2024-03-25T23:38:15;7.57;;;2.80;;
47113;SDS011;32867;51.556;6.832;2024-03-25T23:43:15;7.00;;;2.58;;
47113;SDS011;32867;51.556;6.832;2024-03-25T23:48:16;7.20;;;2.58;;
47113;SDS011;32867;51.556;6.832;2024-03-25T23:53:17;7.90;;;2.50;;
47113;SDS011;32867;51.556;6.832;2024-03-25T23:58:17;5.30;;;2.60;;
